Macuru Arrow — C6YH3 — position and weather

sailwx.info

Track history (hours):
 
Tides and Currents Weather Stations Pressure Air Temp Water Temp Dewpoint Dewpoint Depression Visibility Wind Speed Wind Dir Waves Ship Positions

Macuru Arrow

Last reported at 2016-Oct-26 09:10 UTC. Time now 2016-Dec-07 14:27 UTC.
Position N 45°29' W 125°53'.
Warning: this ship's position is 42 days out of date.

Length 225 m; draft 12.1 m.

Type: Cargo ship. MMSI: 311032500.

Date/timePositionNaut miles runAvg speedWind from/ knotsBaromVisibWave heightAir tempDewpointWater temp
2016-Oct-26 09:10N 45°29' W 125°53'711.3
2016-Oct-26 08:33N 45°33' W 125°44'1111.5
2016-Oct-26 07:34N 45°39' W 125°30'3411.2
2016-Oct-26 04:33N 45°56' W 124°49'1110.6
2016-Oct-26 03:33N 46°01' W 124°36'39 9.7
2016-Oct-25 23:34N 46°14' W 123°43'20 9.9
2016-Oct-25 21:33N 46°09' W 123°16'1110.8
2016-Oct-25 20:34N 46°08' W 123°00'29 9.8
2016-Oct-25 17:33N 45°40' W 122°46'4 3.8
2016-Oct-25 16:33N 45°36' W 122°47'0 0.0
2016-Oct-25 15:32N 45°36' W 122°47'0 0.0
2016-Oct-25 13:32N 45°36' W 122°47'0 0.3
2016-Oct-25 12:29N 45°36' W 122°46'0 0.0
2016-Oct-25 10:29N 45°36' W 122°46'0 0.0
2016-Oct-25 07:26N 45°36' W 122°47'0 0.0
2016-Oct-25 04:29N 45°36' W 122°47'0 0.0
2016-Oct-25 03:29N 45°36' W 122°47'0 0.0
2016-Oct-25 02:29N 45°36' W 122°47'0 0.0
2016-Oct-24 21:28N 45°36' W 122°47'0 0.0
2016-Oct-24 20:31N 45°36' W 122°47'0 0.0
2016-Oct-24 18:32N 45°36' W 122°46'0 0.0
2016-Oct-24 13:31N 45°36' W 122°46'0 0.0
2016-Oct-24 07:31N 45°36' W 122°46'0 0.0
2016-Oct-24 06:25N 45°36' W 122°46'0 0.0
2016-Oct-24 05:31N 45°36' W 122°46'0 0.0
2016-Oct-24 04:28N 45°36' W 122°46'0 0.0
2016-Oct-24 01:31N 45°36' W 122°46'0 0.0
2016-Oct-23 22:31N 45°36' W 122°46'0 0.0
2016-Oct-23 16:31N 45°36' W 122°47'0 0.0
2016-Oct-23 14:25N 45°36' W 122°47'0 0.0
2016-Oct-23 13:31N 45°36' W 122°47'0 0.0
2016-Oct-23 10:31N 45°36' W 122°47'0 0.0
2016-Oct-23 09:31N 45°36' W 122°47'0 0.0
2016-Oct-23 07:31N 45°36' W 122°46'0 0.0
2016-Oct-23 03:31N 45°36' W 122°46'0 0.0
2016-Oct-23 02:28N 45°36' W 122°46'0 0.0
2016-Oct-22 23:31N 45°36' W 122°46'0 0.0
2016-Oct-22 17:25N 45°36' W 122°46'0 0.0
2016-Oct-22 16:10N 45°36' W 122°46'0 0.0
2016-Oct-22 15:31N 45°36' W 122°46'0 0.0
2016-Oct-22 13:25N 45°36' W 122°46'1 0.2
2016-Oct-22 10:33N 45°36' W 122°47'2 1.2
2016-Oct-22 08:32N 45°38' W 122°44'0 0.0
2016-Oct-22 07:32N 45°38' W 122°44'0 0.0
2016-Oct-22 04:29N 45°38' W 122°44'0 0.0
2016-Oct-22 00:32N 45°38' W 122°44'0 0.0
2016-Oct-21 23:32N 45°38' W 122°44'0 0.0
2016-Oct-21 21:32N 45°38' W 122°44'0 0.0
2016-Oct-21 16:32N 45°38' W 122°44'0 0.0
2016-Oct-21 15:14N 45°38' W 122°44'0 0.0
2016-Oct-21 14:32N 45°38' W 122°44'0 0.0
2016-Oct-21 13:32N 45°38' W 122°44'0 0.0
2016-Oct-21 09:32N 45°38' W 122°44'0 0.0
2016-Oct-21 08:32N 45°38' W 122°44'0 0.0
2016-Oct-21 06:20N 45°38' W 122°44'0 0.0
2016-Oct-21 00:32N 45°38' W 122°44'0 0.0
2016-Oct-20 22:32N 45°38' W 122°44'0 0.0
2016-Oct-20 20:29N 45°38' W 122°44'0 0.0
2016-Oct-20 15:32N 45°38' W 122°44'0 0.0
2016-Oct-20 13:32N 45°38' W 122°44'0 0.0
2016-Oct-20 12:29N 45°38' W 122°44'0 0.0
2016-Oct-20 11:32N 45°38' W 122°44'0 0.0
2016-Oct-20 10:32N 45°38' W 122°44'0 0.4
2016-Oct-20 09:33N 45°38' W 122°45'9 8.5
2016-Oct-20 08:33N 45°47' W 122°46'2010.0
2016-Oct-20 06:33N 46°06' W 122°56'19 9.7
2016-Oct-20 04:33N 46°09' W 123°23'31 7.7
2016-Oct-20 00:34N 46°14' W 124°07'11 5.6
2016-Oct-19 22:33N 46°14' W 124°23'15 7.5
2016-Oct-19 20:33N 46°13' W 124°45'1211.8
2016-Oct-19 19:33N 46°14' W 125°02'3410.9
2016-Oct-19 16:26N 46°17' W 125°51'5 5.3
2016-Oct-19 15:33N 46°18' W 125°58'1312.6
2016-Oct-19 14:30N 46°20' W 126°17'  
Track history (hours):
 
Tides and Currents Weather Stations Pressure Air Temp Water Temp Dewpoint Dewpoint Depression Visibility Wind Speed Wind Dir Waves Ship Positions

Macuru Arrow

Last reported at 2016-Oct-26 09:10 UTC. Time now 2016-Dec-07 14:27 UTC.
Position N 45°29' W 125°53'.
Warning: this ship's position is 42 days out of date.

Length 225 m; draft 12.1 m.

Type: Cargo ship. MMSI: 311032500.

Date/timePositionNaut miles runAvg speedWind from/ knotsBaromVisibWave heightAir tempDewpointWater temp
2016-Oct-26 09:10N 45°29' W 125°53'711.3
2016-Oct-26 08:33N 45°33' W 125°44'1111.5
2016-Oct-26 07:34N 45°39' W 125°30'3411.2
2016-Oct-26 04:33N 45°56' W 124°49'1110.6
2016-Oct-26 03:33N 46°01' W 124°36'39 9.7
2016-Oct-25 23:34N 46°14' W 123°43'20 9.9
2016-Oct-25 21:33N 46°09' W 123°16'1110.8
2016-Oct-25 20:34N 46°08' W 123°00'29 9.8
2016-Oct-25 17:33N 45°40' W 122°46'4 3.8
2016-Oct-25 16:33N 45°36' W 122°47'0 0.0
2016-Oct-25 15:32N 45°36' W 122°47'0 0.0
2016-Oct-25 13:32N 45°36' W 122°47'0 0.3
2016-Oct-25 12:29N 45°36' W 122°46'0 0.0
2016-Oct-25 10:29N 45°36' W 122°46'0 0.0
2016-Oct-25 07:26N 45°36' W 122°47'0 0.0
2016-Oct-25 04:29N 45°36' W 122°47'0 0.0
2016-Oct-25 03:29N 45°36' W 122°47'0 0.0
2016-Oct-25 02:29N 45°36' W 122°47'0 0.0
2016-Oct-24 21:28N 45°36' W 122°47'0 0.0
2016-Oct-24 20:31N 45°36' W 122°47'0 0.0
2016-Oct-24 18:32N 45°36' W 122°46'0 0.0
2016-Oct-24 13:31N 45°36' W 122°46'0 0.0
2016-Oct-24 07:31N 45°36' W 122°46'0 0.0
2016-Oct-24 06:25N 45°36' W 122°46'0 0.0
2016-Oct-24 05:31N 45°36' W 122°46'0 0.0
2016-Oct-24 04:28N 45°36' W 122°46'0 0.0
2016-Oct-24 01:31N 45°36' W 122°46'0 0.0
2016-Oct-23 22:31N 45°36' W 122°46'0 0.0
2016-Oct-23 16:31N 45°36' W 122°47'0 0.0
2016-Oct-23 14:25N 45°36' W 122°47'0 0.0
2016-Oct-23 13:31N 45°36' W 122°47'0 0.0
2016-Oct-23 10:31N 45°36' W 122°47'0 0.0
2016-Oct-23 09:31N 45°36' W 122°47'0 0.0
2016-Oct-23 07:31N 45°36' W 122°46'0 0.0
2016-Oct-23 03:31N 45°36' W 122°46'0 0.0
2016-Oct-23 02:28N 45°36' W 122°46'0 0.0
2016-Oct-22 23:31N 45°36' W 122°46'0 0.0
2016-Oct-22 17:25N 45°36' W 122°46'0 0.0
2016-Oct-22 16:10N 45°36' W 122°46'0 0.0
2016-Oct-22 15:31N 45°36' W 122°46'0 0.0
2016-Oct-22 13:25N 45°36' W 122°46'1 0.2
2016-Oct-22 10:33N 45°36' W 122°47'2 1.2
2016-Oct-22 08:32N 45°38' W 122°44'0 0.0
2016-Oct-22 07:32N 45°38' W 122°44'0 0.0
2016-Oct-22 04:29N 45°38' W 122°44'0 0.0
2016-Oct-22 00:32N 45°38' W 122°44'0 0.0
2016-Oct-21 23:32N 45°38' W 122°44'0 0.0
2016-Oct-21 21:32N 45°38' W 122°44'0 0.0
2016-Oct-21 16:32N 45°38' W 122°44'0 0.0
2016-Oct-21 15:14N 45°38' W 122°44'0 0.0
2016-Oct-21 14:32N 45°38' W 122°44'0 0.0
2016-Oct-21 13:32N 45°38' W 122°44'0 0.0
2016-Oct-21 09:32N 45°38' W 122°44'0 0.0
2016-Oct-21 08:32N 45°38' W 122°44'0 0.0
2016-Oct-21 06:20N 45°38' W 122°44'0 0.0
2016-Oct-21 00:32N 45°38' W 122°44'0 0.0
2016-Oct-20 22:32N 45°38' W 122°44'0 0.0
2016-Oct-20 20:29N 45°38' W 122°44'0 0.0
2016-Oct-20 15:32N 45°38' W 122°44'0 0.0
2016-Oct-20 13:32N 45°38' W 122°44'0 0.0
2016-Oct-20 12:29N 45°38' W 122°44'0 0.0
2016-Oct-20 11:32N 45°38' W 122°44'0 0.0
2016-Oct-20 10:32N 45°38' W 122°44'0 0.4
2016-Oct-20 09:33N 45°38' W 122°45'9 8.5
2016-Oct-20 08:33N 45°47' W 122°46'2010.0
2016-Oct-20 06:33N 46°06' W 122°56'19 9.7
2016-Oct-20 04:33N 46°09' W 123°23'31 7.7
2016-Oct-20 00:34N 46°14' W 124°07'11 5.6
2016-Oct-19 22:33N 46°14' W 124°23'15 7.5
2016-Oct-19 20:33N 46°13' W 124°45'1211.8
2016-Oct-19 19:33N 46°14' W 125°02'3410.9
2016-Oct-19 16:26N 46°17' W 125°51'5 5.3
2016-Oct-19 15:33N 46°18' W 125°58'1312.6
2016-Oct-19 14:30N 46°20' W 126°17'  

Dump ship's entire track history